createdAt,value
2023-03-22T00:01:54.541Z,25.60
2023-03-22T00:06:56.860Z,25.10
2023-03-22T00:11:58.820Z,25.70
2023-03-22T00:17:00.791Z,24.70
2023-03-22T00:22:06.319Z,25.10
2023-03-22T00:27:08.346Z,24.70
2023-03-22T00:32:10.981Z,24.10
2023-03-22T00:37:13.072Z,25.60
2023-03-22T00:42:15.011Z,28.00
2023-03-22T00:47:16.990Z,26.60
2023-03-22T00:52:19.023Z,26.10
2023-03-22T00:57:21.868Z,26.70
2023-03-22T01:02:29.302Z,20.70
2023-03-22T01:07:31.342Z,14.50
2023-03-22T01:12:33.629Z,18.10
2023-03-22T01:17:35.724Z,14.90
2023-03-22T01:22:38.124Z,19.80
2023-03-22T01:27:40.142Z,20.70
2023-03-22T01:32:44.803Z,18.60
2023-03-22T01:37:46.946Z,15.80
2023-03-22T01:42:48.990Z,16.40
2023-03-22T01:48:28.757Z,16.10
2023-03-22T01:53:35.674Z,16.60
2023-03-22T01:58:38.567Z,13.50
2023-03-22T02:03:52.174Z,9.60
2023-03-22T02:08:57.621Z,8.10
2023-03-22T02:14:14.525Z,7.60
2023-03-22T02:19:41.901Z,8.10
2023-03-22T02:25:19.463Z,9.50
2023-03-22T02:30:30.145Z,9.50
2023-03-22T02:36:23.038Z,7.90
2023-03-22T02:41:46.912Z,11.20
2023-03-22T02:47:04.543Z,12.20
2023-03-22T02:52:17.588Z,12.90
2023-03-22T02:57:33.619Z,17.10
2023-03-22T03:02:38.076Z,13.50
2023-03-22T03:07:44.293Z,11.00
2023-03-22T03:12:46.445Z,10.60
2023-03-22T03:18:18.240Z,11.70
2023-03-22T03:23:30.909Z,11.40
2023-03-22T03:28:54.738Z,11.90
2023-03-22T03:33:56.636Z,11.00
2023-03-22T03:39:01.343Z,11.30
2023-03-22T03:44:04.163Z,11.40
2023-03-22T03:49:08.323Z,12.00
2023-03-22T03:54:10.455Z,11.90
2023-03-22T03:59:15.439Z,12.00
2023-03-22T04:04:27.815Z,11.80
2023-03-22T04:09:36.323Z,10.20
2023-03-22T04:14:38.294Z,10.30
2023-03-22T04:19:41.891Z,10.30
2023-03-22T04:24:49.832Z,12.30
2023-03-22T04:29:51.883Z,11.30
2023-03-22T04:34:54.393Z,10.80
2023-03-22T04:39:56.443Z,11.20
2023-03-22T04:44:58.486Z,11.40
2023-03-22T04:50:00.676Z,9.80
2023-03-22T04:55:02.771Z,11.00
2023-03-22T05:00:08.314Z,12.50
2023-03-22T05:05:10.492Z,12.80
2023-03-22T05:10:12.616Z,12.70
2023-03-22T05:15:15.116Z,12.70
2023-03-22T05:20:17.429Z,10.50
2023-03-22T05:25:19.453Z,12.80
2023-03-22T05:30:21.568Z,12.90
2023-03-22T05:35:23.754Z,12.40
2023-03-22T05:40:26.741Z,13.10
2023-03-22T05:45:28.769Z,13.20
2023-03-22T05:50:30.963Z,12.40
2023-03-22T05:55:33.495Z,10.80
2023-03-22T06:00:35.722Z,13.20
2023-03-22T06:05:38.233Z,12.40
2023-03-22T06:10:40.446Z,10.70
2023-03-22T06:15:42.607Z,9.30
2023-03-22T06:20:44.772Z,11.30
2023-03-22T06:25:46.951Z,10.90
2023-03-22T06:30:50.094Z,11.90
2023-03-22T06:35:52.352Z,12.30
2023-03-22T06:40:55.063Z,10.80
2023-03-22T06:45:57.199Z,10.70
2023-03-22T06:51:00.665Z,12.20
2023-03-22T06:56:03.362Z,14.30
2023-03-22T07:01:08.617Z,11.70
2023-03-22T07:06:18.612Z,14.20
2023-03-22T07:11:26.650Z,13.90
2023-03-22T07:16:29.229Z,12.90
2023-03-22T07:21:31.256Z,13.80
2023-03-22T07:26:33.540Z,12.20
2023-03-22T07:31:36.953Z,13.80
2023-03-22T07:36:39.456Z,14.30
2023-03-22T07:41:41.909Z,15.90
2023-03-22T07:46:44.405Z,14.30
2023-03-22T07:51:47.015Z,12.70
2023-03-22T07:56:50.310Z,12.90
2023-03-22T08:01:52.692Z,13.80
2023-03-22T08:06:58.345Z,10.80
2023-03-22T08:12:00.485Z,15.60
2023-03-22T08:17:03.113Z,14.90
2023-03-22T08:22:06.717Z,15.90
2023-03-22T08:27:09.320Z,15.60
2023-03-22T08:32:19.019Z,15.30
2023-03-22T08:37:21.557Z,15.60
2023-03-22T08:42:24.030Z,16.00
2023-03-22T08:47:29.397Z,17.20
2023-03-22T08:52:33.465Z,15.40
2023-03-22T08:57:38.732Z,15.00
2023-03-22T09:02:44.213Z,16.50
2023-03-22T09:07:50.007Z,19.40
2023-03-22T09:12:52.612Z,16.70
2023-03-22T09:17:55.040Z,17.70
2023-03-22T09:22:57.570Z,20.30
2023-03-22T09:28:00.071Z,20.20
2023-03-22T09:33:06.370Z,23.20
2023-03-22T09:38:27.623Z,20.00
2023-03-22T09:43:37.164Z,22.70
2023-03-22T09:48:43.459Z,22.90
2023-03-22T09:53:48.188Z,21.00
2023-03-22T09:59:08.975Z,23.80
2023-03-22T10:04:43.771Z,23.10
2023-03-22T10:09:54.508Z,19.70
2023-03-22T10:15:10.638Z,20.70
2023-03-22T10:20:41.986Z,22.70
2023-03-22T10:25:44.622Z,19.70
2023-03-22T10:30:56.802Z,20.40
2023-03-22T10:36:01.137Z,19.50
2023-03-22T10:41:04.155Z,23.10
2023-03-22T10:46:13.415Z,18.30
2023-03-22T10:51:41.291Z,24.10
2023-03-22T10:56:45.112Z,24.00
2023-03-22T11:01:52.524Z,18.60
2023-03-22T11:06:56.439Z,19.30
2023-03-22T11:12:00.399Z,19.40
2023-03-22T11:17:13.733Z,23.50
2023-03-22T11:22:35.426Z,19.60
2023-03-22T11:27:58.099Z,23.10
2023-03-22T11:33:16.925Z,23.10
2023-03-22T11:38:30.915Z,21.60
2023-03-22T11:43:42.083Z,23.40
2023-03-22T11:48:46.635Z,23.70
2023-03-22T11:53:49.035Z,19.30
2023-03-22T11:58:59.803Z,19.80
2023-03-22T12:04:05.189Z,20.70
2023-03-22T12:09:25.322Z,19.30
2023-03-22T12:14:30.741Z,18.00
2023-03-22T12:19:38.539Z,14.80
2023-03-22T12:30:25.186Z,18.80
2023-03-22T12:35:34.880Z,16.60
2023-03-22T12:40:40.850Z,19.00
2023-03-22T12:45:48.801Z,21.00
2023-03-22T12:50:57.078Z,17.30
2023-03-22T12:56:01.293Z,19.10
2023-03-22T13:01:23.724Z,20.90
2023-03-22T13:07:08.555Z,18.40
2023-03-22T13:12:32.358Z,20.60
2023-03-22T13:17:40.409Z,17.20
2023-03-22T13:22:45.912Z,16.10
2023-03-22T13:28:26.004Z,17.80
2023-03-22T13:33:31.519Z,20.10
2023-03-22T13:38:40.547Z,21.20
2023-03-22T13:43:50.066Z,21.20
2023-03-22T13:49:21.499Z,19.60
2023-03-22T13:54:38.608Z,18.90
2023-03-22T14:00:13.579Z,17.70
2023-03-22T14:05:23.380Z,21.90
2023-03-22T14:10:46.472Z,20.00
2023-03-22T14:15:54.799Z,18.50
2023-03-22T14:21:22.133Z,18.90
